createdAt,value
2019-05-18T00:00:53.743Z,13.60
2019-05-18T00:03:23.036Z,13.60
2019-05-18T00:05:52.434Z,13.60
2019-05-18T00:08:21.886Z,13.50
2019-05-18T00:10:51.284Z,13.50
2019-05-18T00:13:20.641Z,13.50
2019-05-18T00:15:50.088Z,13.50
2019-05-18T00:18:19.817Z,13.50
2019-05-18T00:20:49.296Z,13.50
2019-05-18T00:23:18.740Z,13.40
2019-05-18T00:25:48.131Z,13.40
2019-05-18T00:28:17.558Z,13.30
2019-05-18T00:30:46.957Z,13.30
2019-05-18T00:33:16.431Z,13.30
2019-05-18T00:35:45.816Z,13.20
2019-05-18T00:38:15.196Z,13.10
2019-05-18T00:40:44.601Z,13.10
2019-05-18T00:43:13.960Z,13.00
2019-05-18T00:45:43.300Z,13.00
2019-05-18T00:48:12.716Z,12.90
2019-05-18T00:50:42.093Z,12.80
2019-05-18T00:53:11.536Z,12.80
2019-05-18T00:55:40.926Z,12.70
2019-05-18T00:58:10.308Z,12.60
2019-05-18T01:00:39.759Z,12.60
2019-05-18T01:03:09.200Z,12.60
2019-05-18T01:05:38.582Z,12.70
2019-05-18T01:08:07.979Z,12.70
2019-05-18T01:10:37.392Z,12.80
2019-05-18T01:13:06.813Z,12.70
2019-05-18T01:15:36.337Z,12.70
2019-05-18T01:18:05.740Z,12.70
2019-05-18T01:20:35.079Z,12.70
2019-05-18T01:23:04.489Z,12.70
2019-05-18T01:25:33.860Z,12.80
2019-05-18T01:28:03.246Z,12.80
2019-05-18T01:30:32.621Z,12.80
2019-05-18T01:33:02.010Z,12.80
2019-05-18T01:35:31.397Z,12.80
2019-05-18T01:38:00.802Z,12.70
2019-05-18T01:40:30.264Z,12.70
2019-05-18T01:42:59.737Z,12.70
2019-05-18T01:45:29.132Z,12.70
2019-05-18T01:48:12.838Z,12.70
2019-05-18T01:50:29.547Z,12.70
2019-05-18T01:52:58.915Z,12.70
2019-05-18T01:55:28.312Z,12.60
2019-05-18T01:57:57.717Z,12.70
2019-05-18T02:00:27.213Z,12.70
2019-05-18T02:02:56.681Z,12.70
2019-05-18T02:05:26.128Z,12.60
2019-05-18T02:07:55.462Z,12.70
2019-05-18T02:10:24.872Z,12.80
2019-05-18T02:12:54.251Z,12.80
2019-05-18T02:15:23.596Z,12.80
2019-05-18T02:17:52.999Z,12.80
2019-05-18T02:20:22.390Z,12.80
2019-05-18T02:22:51.842Z,12.80
2019-05-18T02:25:21.134Z,12.70
2019-05-18T02:27:50.532Z,12.70
2019-05-18T02:30:20.171Z,12.70
2019-05-18T02:32:49.526Z,12.50
2019-05-18T02:35:18.961Z,12.50
2019-05-18T02:37:48.375Z,12.50
2019-05-18T02:40:17.882Z,12.40
2019-05-18T02:42:47.304Z,12.40
2019-05-18T02:45:16.694Z,12.30
2019-05-18T02:47:46.081Z,12.40
2019-05-18T02:50:15.482Z,12.40
2019-05-18T02:52:44.908Z,12.40
2019-05-18T02:55:14.301Z,12.40
2019-05-18T02:57:43.698Z,12.40
2019-05-18T03:00:13.066Z,12.60
2019-05-18T03:02:42.390Z,12.70
2019-05-18T03:05:11.913Z,12.70
2019-05-18T03:07:41.321Z,12.70
2019-05-18T03:10:10.936Z,12.70
2019-05-18T03:12:40.286Z,12.70
2019-05-18T03:15:09.932Z,12.70
2019-05-18T03:17:39.335Z,12.70
2019-05-18T03:20:08.941Z,12.70
2019-05-18T03:22:38.404Z,12.70
2019-05-18T03:25:08.112Z,12.70
2019-05-18T03:27:37.536Z,12.70
2019-05-18T03:30:07.301Z,12.70
2019-05-18T03:32:36.672Z,12.60
2019-05-18T03:35:06.210Z,12.60
2019-05-18T03:37:35.598Z,12.60
2019-05-18T03:40:05.450Z,12.50
2019-05-18T03:42:34.822Z,12.50
2019-05-18T03:45:04.396Z,12.60
2019-05-18T03:47:33.811Z,12.60
2019-05-18T03:50:03.198Z,12.60
2019-05-18T03:52:32.568Z,12.60
2019-05-18T03:55:01.953Z,12.60
2019-05-18T03:57:31.324Z,12.60
2019-05-18T04:00:01.203Z,12.50
2019-05-18T04:02:30.625Z,12.60
2019-05-18T04:05:00.025Z,12.60
2019-05-18T04:07:29.393Z,12.50
2019-05-18T04:09:58.701Z,12.50
2019-05-18T04:12:28.099Z,12.50
2019-05-18T04:14:57.414Z,12.50
2019-05-18T04:17:26.813Z,12.60
2019-05-18T04:19:56.182Z,12.50
2019-05-18T04:22:25.627Z,12.50
2019-05-18T04:24:55.020Z,12.50
2019-05-18T04:27:24.406Z,12.50
2019-05-18T04:29:53.840Z,12.50
2019-05-18T04:32:23.262Z,12.50
2019-05-18T04:34:52.667Z,12.60
2019-05-18T04:37:22.054Z,12.70
2019-05-18T04:39:51.479Z,12.70
2019-05-18T04:42:20.849Z,12.70
2019-05-18T04:44:50.256Z,12.70
2019-05-18T04:47:19.699Z,12.70
2019-05-18T04:50:03.944Z,12.70
2019-05-18T04:52:20.050Z,12.70
2019-05-18T04:54:49.480Z,12.80
2019-05-18T04:57:18.875Z,12.80
2019-05-18T04:59:48.279Z,12.80
2019-05-18T05:02:17.658Z,12.80
2019-05-18T05:04:47.053Z,12.80
2019-05-18T05:07:16.453Z,12.90
2019-05-18T05:09:45.864Z,12.90
2019-05-18T05:12:15.276Z,12.90
2019-05-18T05:14:44.649Z,13.00
2019-05-18T05:17:14.090Z,13.00
2019-05-18T05:19:43.460Z,13.10
2019-05-18T05:22:12.861Z,13.10
2019-05-18T05:24:42.269Z,13.10
2019-05-18T05:27:11.646Z,13.20
2019-05-18T05:29:41.034Z,13.30
2019-05-18T05:32:10.409Z,13.30
2019-05-18T05:34:39.821Z,13.40
2019-05-18T05:37:09.214Z,13.40
2019-05-18T05:39:38.481Z,13.40
2019-05-18T05:42:07.778Z,13.50
2019-05-18T05:44:37.217Z,13.50
2019-05-18T05:47:06.696Z,13.70
2019-05-18T05:49:36.039Z,13.80
2019-05-18T05:52:05.671Z,13.90
2019-05-18T05:54:34.948Z,14.10
2019-05-18T05:57:04.255Z,14.20
2019-05-18T05:59:33.649Z,14.40
2019-05-18T06:02:02.951Z,14.20
2019-05-18T06:04:32.276Z,14.30
2019-05-18T06:07:01.574Z,14.40
2019-05-18T06:09:31.002Z,14.40
2019-05-18T06:12:00.372Z,14.40
2019-05-18T06:14:29.672Z,14.40
2019-05-18T06:16:59.052Z,14.40
2019-05-18T06:19:28.485Z,14.40
2019-05-18T06:21:57.771Z,14.50
2019-05-18T06:24:27.318Z,14.50
2019-05-18T06:26:56.626Z,14.50
2019-05-18T06:29:26.076Z,14.40
2019-05-18T06:31:55.480Z,14.40
2019-05-18T06:34:24.879Z,14.50
2019-05-18T06:36:55.959Z,14.50
2019-05-18T06:39:25.498Z,14.60
2019-05-18T06:41:54.949Z,14.60
2019-05-18T06:44:24.346Z,14.60
2019-05-18T06:46:53.736Z,14.60
2019-05-18T06:49:23.123Z,14.70
2019-05-18T06:51:52.490Z,14.80
2019-05-18T06:54:21.862Z,14.90
2019-05-18T06:56:53.388Z,14.90
2019-05-18T06:59:23.287Z,15.00
2019-05-18T07:01:52.667Z,15.00
2019-05-18T07:04:22.032Z,15.10
2019-05-18T07:06:51.368Z,15.10
2019-05-18T07:09:20.767Z,15.20
2019-05-18T07:11:50.132Z,15.30
2019-05-18T07:14:25.800Z,15.40
2019-05-18T07:16:50.561Z,15.50
2019-05-18T07:19:19.947Z,15.60
2019-05-18T07:21:49.340Z,15.70
2019-05-18T07:24:18.796Z,15.80
2019-05-18T07:26:48.236Z,15.90
2019-05-18T07:29:17.695Z,16.00
2019-05-18T07:31:47.110Z,16.10
2019-05-18T07:34:16.578Z,16.20
2019-05-18T07:36:45.935Z,16.20
2019-05-18T07:39:15.323Z,16.20
2019-05-18T07:41:47.094Z,16.20
2019-05-18T07:44:15.896Z,16.30
2019-05-18T07:46:45.555Z,16.30
2019-05-18T07:49:15.041Z,16.30
2019-05-18T07:51:44.356Z,16.30
2019-05-18T07:54:13.752Z,16.30
2019-05-18T07:56:43.162Z,16.30
2019-05-18T07:59:12.539Z,16.30
2019-05-18T08:01:41.967Z,16.30
2019-05-18T08:04:11.364Z,16.50
2019-05-18T08:06:40.777Z,16.60
2019-05-18T08:09:10.120Z,16.80
2019-05-18T08:11:39.833Z,16.80
2019-05-18T08:14:09.246Z,16.80
2019-05-18T08:16:38.645Z,16.80
2019-05-18T08:19:08.210Z,16.80
2019-05-18T08:21:50.868Z,17.00
2019-05-18T08:24:08.697Z,16.90
2019-05-18T08:26:38.069Z,17.00
2019-05-18T08:29:07.512Z,17.00
2019-05-18T08:31:36.903Z,16.90
2019-05-18T08:34:06.284Z,16.90
2019-05-18T08:36:35.695Z,16.90
2019-05-18T08:39:06.054Z,16.90
2019-05-18T08:41:35.501Z,17.10
2019-05-18T08:44:04.862Z,17.10
2019-05-18T08:46:34.265Z,17.30
2019-05-18T08:49:03.655Z,17.60
2019-05-18T08:51:33.054Z,17.50
2019-05-18T08:54:02.433Z,17.70
2019-05-18T08:56:31.795Z,17.80
2019-05-18T08:59:01.170Z,17.80
2019-05-18T09:01:30.587Z,18.20
2019-05-18T09:04:00.138Z,18.70
2019-05-18T09:06:29.495Z,19.00
2019-05-18T09:08:59.149Z,19.20
2019-05-18T09:11:28.531Z,19.30
2019-05-18T09:13:57.938Z,19.60
2019-05-18T09:16:27.667Z,19.30
2019-05-18T09:18:56.986Z,19.20
2019-05-18T09:21:26.420Z,19.20
2019-05-18T09:23:55.828Z,19.30
2019-05-18T09:26:25.272Z,19.50
2019-05-18T09:28:54.721Z,19.60
2019-05-18T09:31:24.119Z,19.70
2019-05-18T09:33:53.537Z,19.60
2019-05-18T09:36:22.955Z,19.60
2019-05-18T09:38:52.470Z,19.50
2019-05-18T09:41:21.900Z,19.40
2019-05-18T09:43:51.728Z,19.50
2019-05-18T09:46:21.112Z,20.10
2019-05-18T09:48:50.500Z,20.40
2019-05-18T09:51:19.869Z,20.30
2019-05-18T09:53:51.570Z,20.90
2019-05-18T09:56:20.380Z,21.20
2019-05-18T09:58:49.820Z,21.30
2019-05-18T10:01:19.238Z,21.10
2019-05-18T10:03:48.671Z,21.10
2019-05-18T10:06:18.920Z,21.10
2019-05-18T10:08:48.361Z,21.50
2019-05-18T10:11:17.791Z,21.70
2019-05-18T10:13:47.200Z,21.50
2019-05-18T10:16:16.851Z,21.40
2019-05-18T10:18:46.713Z,21.00
2019-05-18T10:21:16.602Z,20.90
2019-05-18T10:23:46.155Z,20.70
2019-05-18T10:26:15.835Z,20.50
2019-05-18T10:28:45.299Z,21.00
2019-05-18T10:31:14.634Z,20.90
2019-05-18T10:33:44.020Z,21.10
2019-05-18T10:36:13.426Z,21.10
2019-05-18T10:38:42.803Z,21.40
2019-05-18T10:41:12.221Z,21.20
2019-05-18T10:43:41.671Z,21.10
2019-05-18T10:46:11.035Z,21.30
2019-05-18T10:48:40.549Z,21.30
2019-05-18T10:51:09.924Z,21.70
2019-05-18T10:53:39.308Z,22.10
2019-05-18T10:56:08.809Z,22.00
2019-05-18T10:58:38.292Z,21.80
2019-05-18T11:01:07.659Z,21.80
2019-05-18T11:03:37.044Z,21.80
2019-05-18T11:06:06.445Z,21.70
2019-05-18T11:08:38.379Z,21.80
2019-05-18T11:11:06.909Z,22.30
2019-05-18T11:13:36.592Z,22.90
2019-05-18T11:16:06.006Z,23.40
2019-05-18T11:18:35.390Z,23.40
2019-05-18T11:21:04.781Z,23.60
2019-05-18T11:23:43.087Z,23.50
2019-05-18T11:26:07.476Z,23.90
2019-05-18T11:28:36.878Z,23.80
2019-05-18T11:31:06.268Z,23.90
2019-05-18T11:33:35.605Z,24.00
2019-05-18T11:36:04.980Z,24.40
2019-05-18T11:38:34.779Z,24.50
2019-05-18T11:41:04.211Z,25.30
2019-05-18T11:43:33.622Z,25.80
2019-05-18T11:46:03.564Z,25.00
2019-05-18T11:48:35.012Z,24.80
2019-05-18T11:51:04.835Z,24.90
2019-05-18T11:53:34.147Z,25.50
2019-05-18T11:56:03.568Z,25.30
2019-05-18T11:58:32.954Z,25.70
2019-05-18T12:01:02.446Z,26.60
2019-05-18T12:03:31.927Z,27.40
2019-05-18T12:06:01.332Z,27.60
2019-05-18T12:08:31.044Z,27.30
2019-05-18T12:11:01.404Z,26.60
2019-05-18T12:13:31.108Z,26.50
2019-05-18T12:16:00.445Z,26.30
2019-05-18T12:18:29.810Z,25.70
2019-05-18T12:20:59.324Z,25.80
2019-05-18T12:23:28.739Z,26.90
2019-05-18T12:25:58.139Z,28.20
2019-05-18T12:28:27.524Z,29.40
2019-05-18T12:30:56.938Z,29.90
2019-05-18T12:33:26.318Z,29.20
2019-05-18T12:35:55.665Z,28.50
2019-05-18T12:38:25.065Z,28.50
2019-05-18T12:40:54.939Z,29.30
2019-05-18T12:43:24.327Z,30.60
2019-05-18T12:45:53.638Z,30.30
2019-05-18T12:48:23.137Z,29.20
2019-05-18T12:50:52.587Z,28.00
2019-05-18T12:53:22.878Z,26.90
2019-05-18T12:55:52.523Z,26.10
2019-05-18T12:58:21.911Z,25.60
2019-05-18T13:00:51.303Z,25.70
2019-05-18T13:03:20.697Z,27.60
2019-05-18T13:05:50.125Z,29.70
2019-05-18T13:08:19.523Z,31.80
2019-05-18T13:10:48.887Z,33.30
2019-05-18T13:13:18.300Z,32.80
2019-05-18T13:15:47.758Z,31.90
2019-05-18T13:18:17.112Z,30.60
2019-05-18T13:20:46.568Z,30.10
2019-05-18T13:23:15.925Z,28.80
2019-05-18T13:25:45.308Z,27.50
2019-05-18T13:28:14.695Z,26.40
2019-05-18T13:30:44.068Z,25.60
2019-05-18T13:33:13.474Z,25.10
2019-05-18T13:35:45.539Z,24.90
2019-05-18T13:38:14.040Z,25.10
2019-05-18T13:40:43.655Z,25.40
2019-05-18T13:43:13.132Z,25.50
2019-05-18T13:45:42.527Z,25.90
2019-05-18T13:48:11.953Z,26.40
2019-05-18T13:50:44.327Z,26.40
2019-05-18T13:53:12.373Z,26.10
2019-05-18T13:55:41.790Z,25.60
2019-05-18T13:58:11.204Z,25.50
2019-05-18T14:00:40.648Z,25.20
2019-05-18T14:03:10.030Z,24.80
2019-05-18T14:05:39.882Z,24.40
2019-05-18T14:08:09.367Z,23.80
2019-05-18T14:10:38.760Z,23.20
2019-05-18T14:13:08.182Z,22.70
2019-05-18T14:15:37.577Z,22.50
2019-05-18T14:18:06.999Z,22.50
2019-05-18T14:20:36.408Z,22.30
2019-05-18T14:23:05.816Z,22.30
2019-05-18T14:25:35.277Z,22.10
2019-05-18T14:28:04.990Z,22.30
2019-05-18T14:30:34.388Z,22.30
2019-05-18T14:33:04.014Z,22.30
2019-05-18T14:35:33.674Z,22.10
2019-05-18T14:38:03.510Z,22.10
2019-05-18T14:40:32.874Z,21.90
2019-05-18T14:43:02.260Z,21.90
2019-05-18T14:45:31.676Z,21.80
2019-05-18T14:48:01.028Z,21.70
2019-05-18T14:50:30.411Z,21.60
2019-05-18T14:52:59.703Z,21.70
2019-05-18T14:55:33.741Z,21.40
2019-05-18T14:58:00.081Z,21.10
2019-05-18T15:00:29.456Z,20.90
2019-05-18T15:02:58.781Z,21.20
2019-05-18T15:05:28.149Z,21.10
2019-05-18T15:07:57.501Z,21.10
2019-05-18T15:10:27.235Z,21.30
2019-05-18T15:12:56.582Z,22.10
2019-05-18T15:15:25.969Z,24.10
2019-05-18T15:17:55.457Z,25.20
2019-05-18T15:20:25.090Z,25.90
2019-05-18T15:22:54.465Z,26.50
2019-05-18T15:25:23.797Z,27.10
2019-05-18T15:27:53.112Z,26.40
2019-05-18T15:30:22.697Z,26.00
2019-05-18T15:32:52.066Z,25.40
2019-05-18T15:35:21.456Z,25.20
2019-05-18T15:37:50.881Z,25.80
2019-05-18T15:40:20.276Z,26.70
2019-05-18T15:42:49.683Z,26.80
2019-05-18T15:45:19.372Z,26.50
2019-05-18T15:47:48.689Z,26.10
2019-05-18T15:50:19.876Z,25.90
2019-05-18T15:52:49.184Z,25.20
2019-05-18T15:55:18.573Z,24.20
2019-05-18T15:57:47.976Z,23.70
2019-05-18T16:00:17.574Z,22.90
2019-05-18T16:02:46.944Z,22.50
2019-05-18T16:05:17.504Z,22.50
2019-05-18T16:07:46.962Z,22.50
2019-05-18T16:10:17.127Z,22.70
2019-05-18T16:12:46.508Z,22.70
2019-05-18T16:15:16.102Z,22.50
2019-05-18T16:17:45.511Z,22.10
2019-05-18T16:20:15.623Z,22.10
2019-05-18T16:22:45.310Z,21.80
2019-05-18T16:25:14.852Z,21.90
2019-05-18T16:27:44.202Z,21.80
2019-05-18T16:30:14.191Z,21.60
2019-05-18T16:32:43.646Z,21.60
2019-05-18T16:35:13.368Z,21.60
2019-05-18T16:37:42.749Z,21.50
2019-05-18T16:40:12.408Z,21.40
2019-05-18T16:42:41.755Z,21.50
2019-05-18T16:45:11.504Z,21.50
2019-05-18T16:47:40.764Z,21.60
2019-05-18T16:50:10.587Z,21.50
2019-05-18T16:52:39.864Z,21.40
2019-05-18T16:55:09.748Z,21.40
2019-05-18T16:57:39.031Z,21.50
2019-05-18T17:00:09.956Z,22.40
2019-05-18T17:02:39.256Z,22.90
2019-05-18T17:05:09.512Z,23.00
2019-05-18T17:07:38.984Z,23.10
2019-05-18T17:10:08.608Z,23.60
2019-05-18T17:12:37.986Z,24.20
2019-05-18T17:15:07.800Z,23.90
2019-05-18T17:17:37.342Z,23.40
2019-05-18T17:20:07.329Z,23.10
2019-05-18T17:22:36.745Z,22.90
2019-05-18T17:25:06.894Z,22.70
2019-05-18T17:27:36.276Z,22.60
2019-05-18T17:30:06.843Z,22.30
2019-05-18T17:32:36.257Z,22.00
2019-05-18T17:35:06.017Z,22.20
2019-05-18T17:37:35.389Z,22.10
2019-05-18T17:40:05.341Z,22.10
2019-05-18T17:42:34.718Z,22.20
2019-05-18T17:45:04.132Z,22.00
2019-05-18T17:47:33.540Z,21.60
2019-05-18T17:50:02.918Z,21.10
2019-05-18T17:52:32.342Z,20.80
2019-05-18T17:55:01.747Z,20.50
2019-05-18T17:57:31.141Z,20.30
2019-05-18T18:00:00.560Z,19.80
2019-05-18T18:02:30.059Z,19.50
2019-05-18T18:04:59.457Z,19.30
2019-05-18T18:07:28.878Z,19.10
2019-05-18T18:09:58.247Z,19.00
2019-05-18T18:12:27.669Z,18.90
2019-05-18T18:14:57.229Z,18.90
2019-05-18T18:17:26.634Z,18.90
2019-05-18T18:19:56.034Z,18.70
2019-05-18T18:22:25.432Z,18.50
2019-05-18T18:24:54.956Z,18.40
2019-05-18T18:27:26.679Z,18.50
2019-05-18T18:29:55.376Z,18.50
2019-05-18T18:32:24.885Z,18.50
2019-05-18T18:34:54.253Z,18.40
2019-05-18T18:37:23.649Z,18.10
2019-05-18T18:39:53.145Z,18.00
2019-05-18T18:42:22.517Z,18.00
2019-05-18T18:44:51.829Z,17.90
2019-05-18T18:47:21.244Z,17.80
2019-05-18T18:49:50.529Z,17.70
2019-05-18T18:52:19.915Z,17.60
2019-05-18T18:54:49.211Z,17.60
2019-05-18T18:57:18.631Z,17.60
2019-05-18T18:59:47.911Z,17.60
2019-05-18T19:02:17.205Z,17.60
2019-05-18T19:04:46.636Z,17.60
2019-05-18T19:07:16.221Z,17.70
2019-05-18T19:09:45.589Z,17.70
2019-05-18T19:12:14.947Z,17.50
2019-05-18T19:14:44.326Z,17.30
2019-05-18T19:17:13.692Z,17.20
2019-05-18T19:19:43.052Z,17.00
2019-05-18T19:22:12.432Z,17.10
2019-05-18T19:24:41.728Z,17.00
2019-05-18T19:27:11.191Z,17.10
2019-05-18T19:29:40.584Z,17.10
2019-05-18T19:32:09.999Z,17.00
2019-05-18T19:34:39.552Z,17.00
2019-05-18T19:37:08.969Z,16.90
2019-05-18T19:39:38.352Z,16.80
2019-05-18T19:42:07.650Z,16.70
2019-05-18T19:44:36.964Z,16.70
2019-05-18T19:47:06.362Z,16.80
2019-05-18T19:49:35.846Z,16.70
2019-05-18T19:52:05.212Z,16.70
2019-05-18T19:54:34.563Z,16.60
2019-05-18T19:57:04.103Z,16.40
2019-05-18T19:59:33.468Z,16.40
2019-05-18T20:02:02.891Z,16.40
2019-05-18T20:04:32.257Z,16.50
2019-05-18T20:07:01.669Z,16.60
2019-05-18T20:09:31.100Z,16.60
2019-05-18T20:12:00.662Z,16.50
2019-05-18T20:14:30.073Z,16.50
2019-05-18T20:16:59.486Z,16.40
2019-05-18T20:19:38.638Z,16.50
2019-05-18T20:21:59.825Z,16.40
2019-05-18T20:24:29.280Z,16.20
2019-05-18T20:26:58.619Z,16.20
2019-05-18T20:29:28.062Z,16.20
2019-05-18T20:31:57.578Z,16.00
2019-05-18T20:34:26.975Z,15.90
2019-05-18T20:36:56.425Z,15.80
2019-05-18T20:39:25.883Z,15.90
2019-05-18T20:41:55.351Z,15.90
2019-05-18T20:44:24.834Z,15.80
2019-05-18T20:46:54.251Z,15.80
2019-05-18T20:49:23.752Z,15.70
2019-05-18T20:51:53.084Z,15.80
2019-05-18T20:54:22.491Z,15.60
2019-05-18T20:56:51.980Z,15.60
2019-05-18T20:59:21.412Z,15.60
2019-05-18T21:01:50.822Z,15.60
2019-05-18T21:04:20.274Z,15.70
2019-05-18T21:06:50.521Z,15.70
2019-05-18T21:09:22.585Z,15.70
2019-05-18T21:11:52.069Z,15.60
2019-05-18T21:14:21.572Z,15.60
2019-05-18T21:16:51.377Z,15.50
2019-05-18T21:19:21.048Z,15.50
2019-05-18T21:21:50.432Z,15.60
2019-05-18T21:24:21.728Z,15.70
2019-05-18T21:26:52.655Z,15.80
2019-05-18T21:29:28.454Z,15.70
2019-05-18T21:31:57.912Z,15.70
2019-05-18T21:34:27.467Z,15.70
2019-05-18T21:36:57.136Z,15.60
2019-05-18T21:39:26.666Z,15.50
2019-05-18T21:41:56.092Z,15.50
2019-05-18T21:44:27.925Z,15.50
2019-05-18T21:46:57.522Z,15.50
2019-05-18T21:49:28.165Z,15.50
2019-05-18T21:51:57.601Z,15.60
2019-05-18T21:54:27.055Z,15.70
2019-05-18T21:57:01.119Z,15.70
2019-05-18T21:59:32.681Z,15.60
2019-05-18T22:02:01.629Z,15.70
2019-05-18T22:04:31.216Z,15.80
2019-05-18T22:07:03.225Z,15.70
2019-05-18T22:09:35.682Z,15.60
2019-05-18T22:12:05.154Z,15.60
2019-05-18T22:14:38.501Z,15.70
2019-05-18T22:17:08.099Z,15.60
2019-05-18T22:19:40.443Z,15.50
2019-05-18T22:22:11.520Z,15.40
2019-05-18T22:24:41.123Z,15.30
2019-05-18T22:27:10.630Z,15.20
2019-05-18T22:29:40.222Z,15.20
2019-05-18T22:32:09.763Z,15.20
2019-05-18T22:34:42.218Z,15.10
2019-05-18T22:37:13.225Z,15.00
2019-05-18T22:39:45.701Z,15.00
2019-05-18T22:42:15.141Z,15.00
2019-05-18T22:44:44.890Z,14.90
2019-05-18T22:47:14.678Z,14.90
2019-05-18T22:49:44.132Z,14.90
2019-05-18T22:52:13.610Z,14.80
2019-05-18T22:54:43.051Z,14.80
2019-05-18T22:57:12.804Z,14.80
2019-05-18T22:59:45.040Z,14.80
2019-05-18T23:02:14.500Z,14.70
2019-05-18T23:04:44.132Z,14.60
2019-05-18T23:07:13.563Z,14.60
2019-05-18T23:09:43.004Z,14.60
2019-05-18T23:12:14.123Z,14.60
2019-05-18T23:14:43.848Z,14.50
2019-05-18T23:17:13.378Z,14.50
2019-05-18T23:19:45.673Z,14.50
2019-05-18T23:22:15.383Z,14.50
2019-05-18T23:24:47.228Z,14.50
2019-05-18T23:27:22.776Z,14.50
2019-05-18T23:29:52.170Z,14.50
2019-05-18T23:32:21.909Z,14.50
2019-05-18T23:34:51.301Z,14.50
2019-05-18T23:37:20.769Z,14.40
2019-05-18T23:39:50.329Z,14.40
2019-05-18T23:42:20.017Z,14.30
2019-05-18T23:44:49.491Z,14.40
2019-05-18T23:47:18.957Z,14.30
2019-05-18T23:49:48.261Z,14.40
2019-05-18T23:52:17.661Z,14.30
2019-05-18T23:54:47.742Z,14.40
2019-05-18T23:57:17.105Z,14.40
2019-05-18T23:59:46.521Z,14.50
